Time;durP1;ratioP1;P1;durP2;ratioP2;P2;SDS_P1;SDS_P2;PMS_P1;PMS_P2;Temp;Humidity;BMP_temperature;BMP_pressure;BME280_temperature;BME280_humidity;BME280_pressure;Samples;Min_cycle;Max_cycle;Signal;HPM_P1;HPM_P2
2021/05/26 00:01:38;;;;;;;3.23;1.17;;;14.00;74.80;;;;;;5070696;28;20728;-57
2021/05/26 00:04:05;;;;;;;2.07;0.90;;;14.00;74.80;;;;;;5070560;28;20208;-57
2021/05/26 00:06:31;;;;;;;1.20;0.67;;;14.10;74.90;;;;;;5070671;28;20215;-57
2021/05/26 00:08:57;;;;;;;2.17;1.07;;;14.10;74.80;;;;;;5070714;28;20204;-57
2021/05/26 00:11:23;;;;;;;2.13;0.90;;;14.10;74.90;;;;;;5070345;28;20688;-57
2021/05/26 00:13:49;;;;;;;2.00;0.80;;;14.10;74.90;;;;;;5070452;28;20205;-57
2021/05/26 00:16:16;;;;;;;4.80;1.00;;;14.10;75.30;;;;;;5070770;28;20216;-57
2021/05/26 00:18:43;;;;;;;2.50;1.00;;;14.10;75.40;;;;;;5070603;28;20351;-57
2021/05/26 00:21:10;;;;;;;3.10;1.07;;;14.10;75.40;;;;;;5070838;28;20224;-57
2021/05/26 00:23:37;;;;;;;1.50;0.73;;;14.20;75.60;;;;;;5070489;28;20246;-57
2021/05/26 00:26:03;;;;;;;3.07;1.00;;;14.10;75.70;;;;;;5070830;28;20205;-57
2021/05/26 00:28:30;;;;;;;2.87;1.00;;;14.10;75.80;;;;;;5072767;28;20204;-57
2021/05/26 00:30:58;;;;;;;2.67;1.43;;;14.20;76.10;;;;;;5074644;28;20232;-58
2021/05/26 00:33:25;;;;;;;4.67;1.60;;;14.20;76.60;;;;;;5074136;28;20208;-58
2021/05/26 00:35:52;;;;;;;5.77;1.60;;;14.20;76.90;;;;;;5074336;28;20212;-58
2021/05/26 00:38:20;;;;;;;3.73;1.13;;;14.20;76.90;;;;;;5073821;28;20201;-58
2021/05/26 00:40:47;;;;;;;2.40;1.30;;;14.30;77.00;;;;;;5074102;28;20751;-57
2021/05/26 00:43:15;;;;;;;2.33;1.10;;;14.30;77.00;;;;;;5074235;28;20205;-57
2021/05/26 00:45:41;;;;;;;2.17;0.93;;;14.30;77.30;;;;;;5073783;28;20205;-57
2021/05/26 00:48:08;;;;;;;1.90;0.70;;;14.40;77.50;;;;;;5073777;28;20201;-58
2021/05/26 00:50:37;;;;;;;2.77;1.23;;;14.40;78.40;;;;;;5073881;28;20242;-58
2021/05/26 00:53:06;;;;;;;6.60;1.00;;;14.40;77.90;;;;;;5073687;28;20724;-57
2021/05/26 00:55:33;;;;;;;1.30;0.80;;;14.40;78.10;;;;;;5073708;28;20520;-58
2021/05/26 00:58:00;;;;;;;1.80;0.90;;;14.40;78.30;;;;;;5073799;28;20228;-58
2021/05/26 01:00:28;;;;;;;1.83;0.70;;;14.40;78.60;;;;;;5073587;28;20209;-57
2021/05/26 01:02:54;;;;;;;2.07;1.20;;;14.40;78.60;;;;;;5073346;28;20278;-57
2021/05/26 01:05:22;;;;;;;3.63;1.10;;;14.40;78.60;;;;;;5073290;28;20217;-57
2021/05/26 01:07:49;;;;;;;2.33;0.90;;;14.40;78.80;;;;;;5073479;28;20205;-58
2021/05/26 01:10:18;;;;;;;2.57;0.90;;;14.40;78.90;;;;;;5073776;28;20675;-57
2021/05/26 01:12:45;;;;;;;3.27;1.07;;;14.40;78.90;;;;;;5073612;28;20232;-57
2021/05/26 01:15:14;;;;;;;2.20;0.90;;;14.40;79.20;;;;;;5073121;28;20212;-58
2021/05/26 01:17:40;;;;;;;1.73;0.70;;;14.50;80.80;;;;;;5073615;28;20216;-58
2021/05/26 01:20:10;;;;;;;3.73;0.97;;;14.50;82.50;;;;;;5073498;28;20204;-58
2021/05/26 01:22:37;;;;;;;2.00;0.90;;;14.50;83.40;;;;;;5073223;28;20279;-58
2021/05/26 01:25:05;;;;;;;3.53;1.30;;;14.50;83.60;;;;;;5073302;28;20205;-58
2021/05/26 01:27:32;;;;;;;2.93;0.93;;;14.60;84.10;;;;;;5073146;28;20258;-58
2021/05/26 01:29:59;;;;;;;2.80;1.00;;;14.50;86.30;;;;;;5073348;28;20264;-58
2021/05/26 01:32:26;;;;;;;5.13;1.20;;;14.50;89.20;;;;;;5073274;28;20233;-58
2021/05/26 01:34:52;;;;;;;3.27;0.87;;;14.50;90.40;;;;;;5072978;28;20223;-58
2021/05/26 01:37:18;;;;;;;2.57;0.90;;;14.40;91.30;;;;;;5073371;28;20687;-58
2021/05/26 01:39:47;;;;;;;1.67;0.97;;;14.20;91.70;;;;;;5072495;28;20627;-58
2021/05/26 01:42:28;;;;;;;4.47;1.00;;;14.20;92.40;;;;;;5072861;28;20310;-58
2021/05/26 01:44:54;;;;;;;1.97;0.83;;;14.10;93.00;;;;;;5073162;28;20227;-58
2021/05/26 01:47:21;;;;;;;1.93;0.63;;;14.10;93.60;;;;;;5073363;28;20295;-58
2021/05/26 01:49:47;;;;;;;1.97;1.00;;;13.90;92.80;;;;;;5073330;28;20212;-58
2021/05/26 01:52:13;;;;;;;2.13;0.80;;;13.90;92.90;;;;;;5072685;28;20229;-57
2021/05/26 01:54:39;;;;;;;2.67;1.03;;;13.70;94.10;;;;;;5072654;28;20605;-58
2021/05/26 01:57:07;;;;;;;3.33;0.97;;;13.60;94.40;;;;;;5072527;28;20212;-58
2021/05/26 01:59:33;;;;;;;1.27;0.70;;;13.60;94.30;;;;;;5072629;28;20262;-58
2021/05/26 02:01:59;;;;;;;2.13;1.00;;;13.50;94.80;;;;;;5072497;28;20295;-58
2021/05/26 02:04:25;;;;;;;3.40;0.83;;;13.40;94.80;;;;;;5072377;28;20205;-58
2021/05/26 02:07:01;;;;;;;3.17;1.20;;;13.30;95.40;;;;;;5072991;28;20254;-58
2021/05/26 02:09:27;;;;;;;1.53;0.87;;;13.30;95.60;;;;;;5072171;28;20212;-58
2021/05/26 02:14:39;;;;;;;1.53;1.03;;;13.30;95.70;;;;;;5072486;28;20247;-58
2021/05/26 02:17:05;;;;;;;2.83;1.00;;;13.30;95.80;;;;;;5072159;28;20213;-58
2021/05/26 02:19:31;;;;;;;2.90;0.93;;;13.30;96.30;;;;;;5071889;28;20558;-58
2021/05/26 02:21:57;;;;;;;2.40;0.90;;;13.20;96.10;;;;;;5071881;28;20232;-58
2021/05/26 02:24:24;;;;;;;1.80;0.80;;;13.20;96.50;;;;;;5071911;28;20254;-58
2021/05/26 02:26:50;;;;;;;1.67;0.80;;;13.10;96.60;;;;;;5072194;28;20239;-57
2021/05/26 02:29:16;;;;;;;3.00;1.30;;;13.10;96.60;;;;;;5072077;28;20594;-58
2021/05/26 02:31:43;;;;;;;3.50;1.23;;;13.10;96.80;;;;;;5072097;28;20224;-57
2021/05/26 02:34:09;;;;;;;3.93;1.13;;;13.10;97.00;;;;;;5072119;28;20212;-58
2021/05/26 02:36:35;;;;;;;3.27;1.20;;;13.20;97.40;;;;;;5071718;28;20205;-58
2021/05/26 02:39:02;;;;;;;2.63;0.90;;;13.10;97.50;;;;;;5071930;28;20292;-58
2021/05/26 02:41:28;;;;;;;3.23;0.90;;;13.10;97.30;;;;;;5071869;28;20236;-58
2021/05/26 02:43:55;;;;;;;2.90;0.93;;;13.20;97.10;;;;;;5071719;28;20201;-58
2021/05/26 02:46:21;;;;;;;2.27;0.80;;;13.10;97.40;;;;;;5072094;28;20665;-58
2021/05/26 02:48:48;;;;;;;1.90;0.83;;;13.00;97.40;;;;;;5072137;28;20406;-58
2021/05/26 02:51:14;;;;;;;3.97;1.50;;;13.00;97.60;;;;;;5070886;28;20228;-58
2021/05/26 02:53:40;;;;;;;3.80;1.20;;;12.90;98.10;;;;;;5071729;28;20205;-58
2021/05/26 02:56:06;;;;;;;3.47;1.20;;;13.00;98.40;;;;;;5071726;28;20400;-58
2021/05/26 02:58:32;;;;;;;1.70;0.90;;;12.90;98.10;;;;;;5071226;28;20707;-58
2021/05/26 03:00:59;;;;;;;1.20;0.57;;;12.90;98.30;;;;;;5071323;28;20225;-58
2021/05/26 03:03:25;;;;;;;3.50;1.13;;;13.00;98.10;;;;;;5071107;28;20197;-58
2021/05/26 03:05:52;;;;;;;2.33;1.00;;;13.10;98.20;;;;;;5071195;28;20201;-58
2021/05/26 03:08:18;;;;;;;2.77;1.10;;;13.10;97.80;;;;;;5071312;28;20208;-58
2021/05/26 03:10:44;;;;;;;2.97;1.20;;;13.10;98.30;;;;;;5071369;28;20208;-58
2021/05/26 03:13:10;;;;;;;2.73;1.50;;;13.10;98.60;;;;;;5071250;28;20605;-58
2021/05/26 03:15:37;;;;;;;3.53;1.10;;;13.10;98.30;;;;;;5071133;28;20338;-58
2021/05/26 03:18:05;;;;;;;2.80;1.10;;;13.10;98.30;;;;;;5071243;28;20205;-58
2021/05/26 03:20:32;;;;;;;2.63;1.07;;;13.00;98.70;;;;;;5071141;28;20240;-57
2021/05/26 03:22:59;;;;;;;2.07;0.90;;;12.90;98.70;;;;;;5071190;28;20308;-58
2021/05/26 03:25:25;;;;;;;2.30;1.03;;;13.00;98.60;;;;;;5071406;28;20271;-58
2021/05/26 03:27:52;;;;;;;2.03;0.87;;;12.90;98.80;;;;;;5071338;28;20304;-58
2021/05/26 03:30:20;;;;;;;2.27;1.10;;;13.00;99.10;;;;;;5071401;28;20242;-58
2021/05/26 03:32:47;;;;;;;2.37;1.23;;;12.90;99.40;;;;;;5071347;28;20224;-57
2021/05/26 03:35:15;;;;;;;5.50;1.30;;;12.90;99.50;;;;;;5071365;28;20205;-57
2021/05/26 03:37:41;;;;;;;4.33;1.37;;;12.90;99.70;;;;;;5071290;28;20209;-57
2021/05/26 03:40:11;;;;;;;3.47;1.43;;;13.00;99.90;;;;;;5071098;28;20561;-57
2021/05/26 03:42:37;;;;;;;2.90;1.30;;;13.00;99.90;;;;;;5071458;28;20228;-57
2021/05/26 03:45:04;;;;;;;3.20;1.40;;;13.10;99.90;;;;;;5071049;28;20204;-57
2021/05/26 03:47:31;;;;;;;2.90;1.50;;;13.10;99.90;;;;;;5071356;28;20699;-57
2021/05/26 03:49:57;;;;;;;5.40;3.23;;;13.10;99.90;;;;;;5071672;28;20216;-57
2021/05/26 03:52:23;;;;;;;3.87;1.47;;;13.10;99.90;;;;;;5071193;28;20921;-57
2021/05/26 03:54:49;;;;;;;3.87;1.73;;;13.10;99.90;;;;;;5071606;28;20379;-57
2021/05/26 03:57:17;;;;;;;2.60;1.20;;;13.10;99.90;;;;;;5071519;28;20205;-57
2021/05/26 03:59:43;;;;;;;4.07;2.03;;;13.10;99.90;;;;;;5071169;28;20228;-57
2021/05/26 04:02:09;;;;;;;4.67;2.07;;;13.10;99.90;;;;;;5072849;28;20220;-57
2021/05/26 04:04:38;;;;;;;4.87;1.20;;;13.00;99.90;;;;;;5074851;28;20254;-58
2021/05/26 04:07:04;;;;;;;3.07;1.67;;;13.00;99.90;;;;;;5074909;28;20209;-57
2021/05/26 04:09:31;;;;;;;5.50;2.60;;;13.00;99.90;;;;;;5074691;28;20266;-57
2021/05/26 04:11:57;;;;;;;5.03;1.10;;;13.10;99.90;;;;;;5074451;28;20228;-57
2021/05/26 04:14:24;;;;;;;2.17;1.10;;;13.10;99.90;;;;;;5074378;28;20232;-57
2021/05/26 04:16:50;;;;;;;2.90;1.20;;;13.10;99.90;;;;;;5074646;28;20243;-58
2021/05/26 04:19:16;;;;;;;2.07;0.87;;;13.20;99.90;;;;;;5074233;28;20205;-57
2021/05/26 04:21:43;;;;;;;5.90;1.57;;;13.20;99.90;;;;;;5074427;28;20220;-57
2021/05/26 04:24:09;;;;;;;2.37;1.37;;;13.20;99.90;;;;;;5074471;28;20205;-57
2021/05/26 04:26:35;;;;;;;5.87;2.00;;;13.20;99.90;;;;;;5074613;28;20201;-57
2021/05/26 04:29:02;;;;;;;4.10;1.73;;;13.30;99.90;;;;;;5074657;28;20205;-57
2021/05/26 04:31:29;;;;;;;5.93;1.60;;;13.30;99.90;;;;;;5074220;28;20224;-57
2021/05/26 04:33:55;;;;;;;2.47;0.97;;;13.40;99.90;;;;;;5074183;28;20334;-57
2021/05/26 04:36:21;;;;;;;4.17;1.63;;;13.30;99.90;;;;;;5074346;28;20209;-57
2021/05/26 04:38:47;;;;;;;4.37;1.73;;;13.40;99.90;;;;;;5074146;28;20215;-57
2021/05/26 04:41:14;;;;;;;3.13;1.70;;;13.40;99.90;;;;;;5074004;28;20232;-58
2021/05/26 04:43:40;;;;;;;2.73;1.50;;;13.40;99.90;;;;;;5073844;28;20201;-57
2021/05/26 04:46:06;;;;;;;3.87;1.53;;;13.30;99.90;;;;;;5073946;28;20692;-57
2021/05/26 04:48:33;;;;;;;2.83;1.37;;;13.30;99.90;;;;;;5074039;28;20204;-57
2021/05/26 04:50:59;;;;;;;4.57;1.67;;;13.30;99.90;;;;;;5074209;28;20247;-58
2021/05/26 04:53:25;;;;;;;2.47;1.30;;;13.40;99.90;;;;;;5073700;28;20279;-58
2021/05/26 04:55:52;;;;;;;4.97;1.83;;;13.40;99.90;;;;;;5073974;28;20201;-57
2021/05/26 04:58:18;;;;;;;4.67;1.60;;;13.30;99.90;;;;;;5073877;28;20213;-58
2021/05/26 05:00:44;;;;;;;5.93;1.20;;;13.30;99.90;;;;;;5073997;28;20212;-58
2021/05/26 05:03:11;;;;;;;2.67;1.17;;;13.20;99.90;;;;;;5073935;28;20693;-58
2021/05/26 05:05:38;;;;;;;3.33;1.30;;;13.20;99.90;;;;;;5073745;28;20205;-58
2021/05/26 05:08:05;;;;;;;3.23;1.47;;;13.20;99.90;;;;;;5074469;28;20315;-57
2021/05/26 05:10:32;;;;;;;3.13;1.10;;;13.20;99.90;;;;;;5073769;28;20621;-58
2021/05/26 05:12:58;;;;;;;2.13;1.10;;;13.30;99.90;;;;;;5073185;28;20286;-58
2021/05/26 05:15:25;;;;;;;3.50;1.17;;;13.30;99.90;;;;;;5073024;28;20201;-57
2021/05/26 05:17:51;;;;;;;2.50;1.20;;;13.40;99.90;;;;;;5073631;28;20204;-58
2021/05/26 05:20:20;;;;;;;2.33;1.20;;;13.40;99.90;;;;;;5073600;28;20213;-58
2021/05/26 05:22:47;;;;;;;3.00;1.53;;;13.40;99.90;;;;;;5073169;28;20620;-59
2021/05/26 05:25:14;;;;;;;3.90;1.40;;;13.30;99.90;;;;;;5073230;28;20216;-57
2021/05/26 05:27:40;;;;;;;3.13;0.93;;;13.40;99.90;;;;;;5073599;28;20205;-57
2021/05/26 05:30:08;;;;;;;3.83;1.57;;;13.40;99.90;;;;;;5073457;28;20205;-57
2021/05/26 05:32:34;;;;;;;3.23;1.03;;;13.40;99.90;;;;;;5073103;28;20692;-57
2021/05/26 05:35:00;;;;;;;2.33;1.27;;;13.40;99.90;;;;;;5072976;28;20204;-58
2021/05/26 05:37:27;;;;;;;2.80;1.20;;;13.30;99.90;;;;;;5073070;28;20251;-57
2021/05/26 05:39:54;;;;;;;4.90;1.20;;;13.30;99.90;;;;;;5072802;28;20695;-58
2021/05/26 05:42:20;;;;;;;3.20;1.00;;;13.30;99.90;;;;;;5073342;28;20240;-58
2021/05/26 05:44:47;;;;;;;2.93;1.30;;;13.40;99.90;;;;;;5072892;28;20212;-58
2021/05/26 05:47:14;;;;;;;2.47;1.03;;;13.40;99.90;;;;;;5072861;28;20201;-57
2021/05/26 05:49:41;;;;;;;2.57;1.23;;;13.40;99.90;;;;;;5072764;28;20214;-58
2021/05/26 05:52:08;;;;;;;2.93;1.00;;;13.50;99.90;;;;;;5073164;28;20236;-57
2021/05/26 05:54:35;;;;;;;3.07;1.20;;;13.50;99.90;;;;;;5072789;28;20244;-57
2021/05/26 05:57:02;;;;;;;3.27;1.03;;;13.50;99.90;;;;;;5073173;28;20241;-58
2021/05/26 05:59:28;;;;;;;4.50;1.80;;;13.60;99.90;;;;;;5072563;28;20209;-58
2021/05/26 06:01:54;;;;;;;29.70;22.97;;;13.70;99.90;;;;;;5072562;28;20293;-58
2021/05/26 06:04:21;;;;;;;7.53;3.60;;;13.80;99.90;;;;;;5072430;28;20209;-58
2021/05/26 06:06:47;;;;;;;2.83;1.03;;;13.80;99.90;;;;;;5072459;28;20211;-57
2021/05/26 06:09:13;;;;;;;4.47;1.17;;;13.70;99.90;;;;;;5072360;28;21315;-58
2021/05/26 06:11:39;;;;;;;4.03;1.17;;;13.70;99.90;;;;;;5072828;28;20627;-57
2021/05/26 06:14:07;;;;;;;2.47;1.20;;;13.70;99.90;;;;;;5072195;28;20228;-58
2021/05/26 06:16:34;;;;;;;2.00;1.30;;;13.70;99.90;;;;;;5072050;28;20204;-58
2021/05/26 06:19:00;;;;;;;1.53;1.10;;;13.80;99.90;;;;;;5072116;28;20205;-58
2021/05/26 06:21:26;;;;;;;3.47;1.20;;;13.80;99.90;;;;;;5072019;28;20225;-58
2021/05/26 06:23:52;;;;;;;3.70;1.70;;;13.90;99.90;;;;;;5072031;28;20205;-58
2021/05/26 06:26:19;;;;;;;3.73;1.97;;;13.80;99.90;;;;;;5072246;28;20564;-58
2021/05/26 06:28:45;;;;;;;3.60;1.90;;;13.90;99.90;;;;;;5072198;28;20629;-58
2021/05/26 06:31:12;;;;;;;2.43;1.40;;;13.90;99.90;;;;;;5072153;28;20607;-58
2021/05/26 06:33:39;;;;;;;2.20;1.40;;;14.00;99.90;;;;;;5072157;28;20649;-57
2021/05/26 06:36:05;;;;;;;4.90;1.50;;;14.20;99.90;;;;;;5072166;28;20212;-56
2021/05/26 06:38:31;;;;;;;4.23;1.20;;;14.20;99.90;;;;;;5071744;28;20212;-57
2021/05/26 06:40:57;;;;;;;3.60;1.60;;;14.20;99.90;;;;;;5072051;28;20248;-57
2021/05/26 06:43:24;;;;;;;3.77;1.10;;;14.30;99.90;;;;;;5071316;28;20722;-56
2021/05/26 06:45:50;;;;;;;2.47;1.17;;;14.30;99.90;;;;;;5071775;28;20208;-56
2021/05/26 06:48:17;;;;;;;4.00;0.83;;;14.30;99.90;;;;;;5071528;28;20660;-57
2021/05/26 06:50:43;;;;;;;3.77;1.10;;;14.30;99.90;;;;;;5071373;28;20798;-57
2021/05/26 06:53:09;;;;;;;2.47;1.20;;;14.40;99.90;;;;;;5071595;28;20228;-57
2021/05/26 06:55:35;;;;;;;2.33;1.00;;;14.40;99.90;;;;;;5071704;28;20205;-57
2021/05/26 06:58:02;;;;;;;3.07;1.33;;;14.50;99.90;;;;;;5071615;28;20204;-56
2021/05/26 07:00:29;;;;;;;5.30;1.53;;;14.50;99.90;;;;;;5071471;28;20265;-56
2021/05/26 07:02:55;;;;;;;4.13;1.70;;;14.50;99.90;;;;;;5071209;28;20217;-56
2021/05/26 07:05:22;;;;;;;6.97;4.07;;;14.50;99.90;;;;;;5071592;28;20257;-57
2021/05/26 07:07:49;;;;;;;7.90;4.70;;;14.60;99.90;;;;;;5071144;28;20691;-57
2021/05/26 07:10:16;;;;;;;3.30;1.60;;;14.60;99.90;;;;;;5071526;28;20201;-57
2021/05/26 07:12:42;;;;;;;4.27;1.20;;;14.70;99.90;;;;;;5071247;28;20260;-57
2021/05/26 07:15:09;;;;;;;3.93;1.40;;;14.80;99.90;;;;;;5071009;28;20216;-57
2021/05/26 07:17:36;;;;;;;3.60;1.40;;;14.80;99.90;;;;;;5071470;28;20205;-57
2021/05/26 07:20:03;;;;;;;2.07;1.20;;;15.00;99.90;;;;;;5071152;28;20205;-56
2021/05/26 07:22:30;;;;;;;4.90;1.37;;;15.20;99.90;;;;;;5071032;28;20235;-57
2021/05/26 07:24:56;;;;;;;4.07;1.40;;;15.40;99.90;;;;;;5071115;28;20241;-57
2021/05/26 07:27:23;;;;;;;1.90;1.30;;;15.50;99.90;;;;;;5071095;28;20578;-58
2021/05/26 07:29:49;;;;;;;2.17;1.30;;;15.50;99.90;;;;;;5071023;28;20201;-57
2021/05/26 07:32:16;;;;;;;3.70;1.60;;;15.60;99.90;;;;;;5070772;28;20224;-57
2021/05/26 07:34:42;;;;;;;3.97;1.40;;;15.60;99.90;;;;;;5071104;28;20220;-58
2021/05/26 07:37:08;;;;;;;3.07;1.27;;;15.50;99.90;;;;;;5070547;28;20209;-58
2021/05/26 07:39:36;;;;;;;3.27;1.37;;;15.50;99.90;;;;;;5070852;28;20673;-57
2021/05/26 07:42:02;;;;;;;3.17;1.20;;;15.60;99.90;;;;;;5070660;28;20293;-57
2021/05/26 07:44:29;;;;;;;4.87;1.17;;;15.70;99.90;;;;;;5070879;28;20197;-56
2021/05/26 07:46:56;;;;;;;3.10;1.37;;;15.70;99.90;;;;;;5070886;28;20209;-56
2021/05/26 07:49:24;;;;;;;2.40;1.13;;;15.70;99.90;;;;;;5071000;28;20217;-58
2021/05/26 07:51:52;;;;;;;5.40;1.27;;;15.80;99.90;;;;;;5071017;28;20225;-58
2021/05/26 07:54:18;;;;;;;3.53;1.50;;;15.80;99.90;;;;;;5070759;28;20209;-58
2021/05/26 07:56:45;;;;;;;4.67;1.40;;;15.70;99.90;;;;;;5070563;28;20208;-56
2021/05/26 07:59:12;;;;;;;5.70;1.53;;;15.70;99.90;;;;;;5070633;28;20208;-56
2021/05/26 08:01:38;;;;;;;3.13;1.40;;;15.80;99.90;;;;;;5070931;28;20790;-57
2021/05/26 08:04:04;;;;;;;5.07;1.40;;;15.90;99.90;;;;;;5070371;28;20205;-57
2021/05/26 08:06:31;;;;;;;4.10;1.33;;;15.90;99.90;;;;;;5070520;28;20673;-57
2021/05/26 08:08:57;;;;;;;4.17;1.70;;;15.90;99.90;;;;;;5071386;28;20234;-57
2021/05/26 08:11:24;;;;;;;4.20;1.63;;;16.00;99.90;;;;;;5071263;28;20229;-58
2021/05/26 08:13:52;;;;;;;4.90;1.70;;;16.00;99.90;;;;;;5070231;28;20607;-58
2021/05/26 08:16:18;;;;;;;4.03;1.60;;;16.00;99.90;;;;;;5070036;28;20621;-57
2021/05/26 08:18:45;;;;;;;3.57;1.97;;;16.10;99.90;;;;;;5070091;28;20213;-58
2021/05/26 08:21:11;;;;;;;4.37;1.63;;;16.10;99.90;;;;;;5070027;28;20229;-58
2021/05/26 08:23:37;;;;;;;4.97;1.80;;;16.10;99.90;;;;;;5070209;28;20197;-59
2021/05/26 08:26:07;;;;;;;5.10;1.80;;;16.20;99.90;;;;;;5070137;28;20227;-58
2021/05/26 08:28:33;;;;;;;5.17;1.50;;;16.30;99.90;;;;;;5069814;28;20205;-58
2021/05/26 08:31:01;;;;;;;3.43;1.67;;;16.40;99.90;;;;;;5070119;28;20225;-59
2021/05/26 08:33:27;;;;;;;2.87;1.63;;;16.50;99.90;;;;;;5070072;28;20645;-58
2021/05/26 08:35:53;;;;;;;3.93;1.77;;;16.50;99.80;;;;;;5070646;28;20304;-58
2021/05/26 08:38:19;;;;;;;4.27;1.60;;;16.50;99.50;;;;;;5070146;28;20295;-58
2021/05/26 08:40:45;;;;;;;5.83;2.40;;;16.40;98.90;;;;;;5070109;28;20216;-58
2021/05/26 08:43:15;;;;;;;5.13;1.90;;;16.50;99.10;;;;;;5070000;28;20201;-58
2021/05/26 08:45:41;;;;;;;7.80;2.03;;;16.50;98.80;;;;;;5069930;28;20213;-57
2021/05/26 08:48:13;;;;;;;5.10;2.10;;;16.50;98.90;;;;;;5070223;28;20211;-58
2021/05/26 08:50:44;;;;;;;5.33;1.80;;;16.40;98.40;;;;;;5073777;28;20205;-56
2021/05/26 08:53:11;;;;;;;5.50;1.77;;;16.40;98.90;;;;;;5073699;28;20274;-57
2021/05/26 08:55:37;;;;;;;6.67;2.17;;;16.40;99.00;;;;;;5073342;28;20301;-57
2021/05/26 08:58:04;;;;;;;6.20;2.50;;;16.40;98.70;;;;;;5073635;28;20582;-55
2021/05/26 09:00:30;;;;;;;4.10;1.80;;;16.40;98.60;;;;;;5073533;28;20235;-55
2021/05/26 09:02:56;;;;;;;5.97;2.67;;;16.40;99.00;;;;;;5073573;28;20274;-56
2021/05/26 09:05:28;;;;;;;7.20;2.30;;;16.20;99.00;;;;;;5073287;28;20220;-56
2021/05/26 09:07:55;;;;;;;3.77;1.93;;;16.20;98.80;;;;;;5073432;28;20271;-56
2021/05/26 09:10:22;;;;;;;5.33;1.90;;;16.10;98.90;;;;;;5073351;28;20201;-56
2021/05/26 09:12:51;;;;;;;3.63;1.87;;;16.10;99.00;;;;;;5073307;28;20720;-56
2021/05/26 09:15:20;;;;;;;3.20;1.37;;;16.20;99.40;;;;;;5073256;28;20212;-56
2021/05/26 09:17:48;;;;;;;3.57;1.60;;;16.30;99.00;;;;;;5073224;28;20279;-56
2021/05/26 09:20:24;;;;;;;3.93;1.37;;;16.30;98.70;;;;;;5073125;28;20205;-56
2021/05/26 09:23:06;;;;;;;5.07;1.53;;;16.30;98.10;;;;;;5073447;28;20227;-56
2021/05/26 09:25:35;;;;;;;4.77;1.93;;;16.30;98.00;;;;;;5073497;28;20201;-62
2021/05/26 09:28:16;;;;;;;7.13;2.63;;;16.30;98.30;;;;;;5073127;28;20204;-57
2021/05/26 09:30:43;;;;;;;3.43;1.37;;;16.30;98.10;;;;;;5073350;28;20205;-58
2021/05/26 09:33:26;;;;;;;4.40;2.40;;;16.30;97.40;;;;;;5073797;28;20236;-58
2021/05/26 09:36:11;;;;;;;4.87;3.30;;;16.30;97.60;;;;;;5073011;28;20201;-58
2021/05/26 09:38:39;;;;;;;5.00;2.40;;;16.30;97.80;;;;;;5073562;28;20660;-58
2021/05/26 09:41:10;;;;;;;3.50;1.70;;;16.30;97.30;;;;;;5073060;28;20236;-58
2021/05/26 09:43:49;;;;;;;4.23;1.67;;;16.30;97.60;;;;;;5072956;28;20200;-58
2021/05/26 09:46:17;;;;;;;3.50;1.60;;;16.50;97.70;;;;;;5073427;28;20207;-58
2021/05/26 09:48:43;;;;;;;3.10;1.97;;;16.50;97.10;;;;;;5072903;28;20562;-58
2021/05/26 09:51:25;;;;;;;3.73;1.83;;;16.60;97.00;;;;;;5072814;28;20232;-58
2021/05/26 09:54:10;;;;;;;2.40;1.53;;;16.80;97.20;;;;;;5072642;28;20259;-58
2021/05/26 09:56:37;;;;;;;4.53;1.70;;;16.80;97.20;;;;;;5072662;28;20574;-58
2021/05/26 09:59:04;;;;;;;4.07;1.70;;;17.00;96.70;;;;;;5072495;28;20213;-58
2021/05/26 10:01:31;;;;;;;4.17;1.60;;;17.00;96.40;;;;;;5072502;28;20224;-59
2021/05/26 10:03:58;;;;;;;4.80;1.43;;;17.10;96.30;;;;;;5072451;28;20201;-58
2021/05/26 10:06:27;;;;;;;5.07;2.60;;;17.10;96.30;;;;;;5072444;28;20250;-58
2021/05/26 10:08:55;;;;;;;5.87;1.93;;;17.20;96.60;;;;;;5072778;28;20205;-57
2021/05/26 10:11:21;;;;;;;4.87;1.93;;;17.20;95.80;;;;;;5072519;28;20236;-57
2021/05/26 10:13:49;;;;;;;3.60;1.97;;;17.20;95.60;;;;;;5072091;28;20229;-57
2021/05/26 10:16:17;;;;;;;3.13;1.20;;;17.20;96.10;;;;;;5072036;28;20209;-57
2021/05/26 10:18:44;;;;;;;4.50;2.10;;;17.10;95.40;;;;;;5072019;28;20232;-57
2021/05/26 10:21:13;;;;;;;4.17;1.53;;;17.20;95.80;;;;;;5071810;28;20732;-57
2021/05/26 10:23:39;;;;;;;3.60;1.30;;;17.20;95.80;;;;;;5071831;28;20213;-57
2021/05/26 10:26:07;;;;;;;3.20;1.30;;;17.30;95.40;;;;;;5072158;28;20205;-57
2021/05/26 10:28:33;;;;;;;3.73;0.90;;;17.30;94.30;;;;;;5072049;28;20247;-57
2021/05/26 10:31:01;;;;;;;2.43;1.17;;;17.40;94.50;;;;;;5071605;28;20229;-57
2021/05/26 10:33:57;;;;;;;2.10;1.13;;;17.50;94.70;;;;;;5071622;28;20232;-60
2021/05/26 10:36:24;;;;;;;2.20;1.03;;;17.60;94.30;;;;;;4990449;28;20207;-56
2021/05/26 10:38:58;;;;;;;1.83;1.07;;;17.70;93.50;;;;;;5052353;28;20673;-56
2021/05/26 10:41:25;;;;;;;2.83;1.10;;;17.60;93.60;;;;;;5071586;28;20735;-57
2021/05/26 10:43:53;;;;;;;2.40;1.20;;;17.40;93.10;;;;;;5071830;28;20201;-56
2021/05/26 10:46:37;;;;;;;1.73;0.60;;;17.60;93.80;;;;;;5071729;28;20209;-56
2021/05/26 10:49:06;;;;;;;1.53;0.70;;;17.60;93.20;;;;;;5071499;28;20362;-56
2021/05/26 10:52:09;;;;;;;1.17;0.80;;;17.60;93.30;;;;;;5071506;28;20248;-56
2021/05/26 10:55:08;;;;;;;1.37;0.80;;;17.50;93.50;;;;;;5071188;28;20303;-57
2021/05/26 10:58:14;;;;;;;2.00;1.03;;;17.50;93.60;;;;;;5071696;28;20208;-57
2021/05/26 11:00:42;;;;;;;2.23;1.53;;;17.50;93.20;;;;;;5071102;28;20270;-57
2021/05/26 11:03:42;;;;;;;1.40;0.73;;;17.70;93.40;;;;;;5071215;28;20664;-57
2021/05/26 11:06:39;;;;;;;1.97;1.17;;;17.90;93.10;;;;;;5071581;28;20205;-57
2021/05/26 11:09:08;;;;;;;1.93;0.97;;;18.30;92.40;;;;;;5071138;28;20483;-57
2021/05/26 11:11:48;;;;;;;1.33;0.77;;;18.60;91.50;;;;;;5070617;28;20319;-57
2021/05/26 11:14:33;;;;;;;1.47;0.70;;;18.80;91.30;;;;;;5070877;28;20746;-58
2021/05/26 11:17:20;;;;;;;1.17;0.70;;;18.80;90.30;;;;;;5071280;28;20215;-57
2021/05/26 11:19:46;;;;;;;1.60;0.83;;;18.90;90.30;;;;;;5071505;28;20208;-57
2021/05/26 11:22:14;;;;;;;1.93;0.80;;;18.90;88.80;;;;;;5071230;28;20225;-57
2021/05/26 11:24:43;;;;;;;0.88;0.80;;;18.70;89.60;;;;;;5071280;28;20259;-57
2021/05/26 11:27:16;;;;;;;1.37;0.53;;;18.70;89.60;;;;;;5070949;28;20212;-57
2021/05/26 11:29:48;;;;;;;1.10;0.50;;;18.70;90.00;;;;;;5071069;28;20208;-56
2021/05/26 11:32:16;;;;;;;0.90;0.40;;;18.80;90.00;;;;;;5071448;28;20224;-57
2021/05/26 11:34:45;;;;;;;1.20;0.60;;;18.80;89.40;;;;;;5071097;28;20258;-57
2021/05/26 11:37:12;;;;;;;2.53;0.57;;;18.80;89.70;;;;;;5071293;28;20212;-57
2021/05/26 11:39:39;;;;;;;1.80;0.87;;;18.60;90.10;;;;;;5070843;28;20208;-56
2021/05/26 11:42:09;;;;;;;2.70;1.00;;;18.40;90.40;;;;;;5105067;22;20231;-59
2021/05/26 11:44:36;;;;;;;1.23;0.70;;;18.50;90.30;;;;;;5091022;28;20204;-59
2021/05/26 11:47:04;;;;;;;1.73;0.93;;;18.40;90.40;;;;;;5091353;28;20208;-59
2021/05/26 11:49:32;;;;;;;2.00;1.07;;;18.40;90.20;;;;;;5091037;28;20204;-57
2021/05/26 11:52:03;;;;;;;1.57;1.00;;;18.40;90.10;;;;;;5091102;28;20255;-57
2021/05/26 11:54:29;;;;;;;1.73;0.83;;;18.30;89.90;;;;;;5090658;28;20228;-59
2021/05/26 11:57:00;;;;;;;2.45;1.02;;;18.50;90.10;;;;;;5090919;28;20211;-59
2021/05/26 11:59:28;;;;;;;1.57;0.93;;;18.50;88.60;;;;;;5090998;28;20208;-58
2021/05/26 12:01:54;;;;;;;1.40;0.98;;;18.60;88.90;;;;;;5090754;28;20219;-57
2021/05/26 12:04:21;;;;;;;2.13;1.27;;;18.70;88.40;;;;;;5090900;28;20717;-58
2021/05/26 12:06:48;;;;;;;1.70;0.87;;;18.70;87.90;;;;;;5090873;28;20663;-58
2021/05/26 12:09:28;;;;;;;2.10;0.80;;;18.80;86.80;;;;;;5090665;28;20204;-56
2021/05/26 12:11:54;;;;;;;3.47;0.93;;;18.80;86.50;;;;;;5090971;28;20547;-57
2021/05/26 12:14:28;;;;;;;0.83;0.73;;;19.00;86.90;;;;;;5090706;28;20224;-59
2021/05/26 12:16:55;;;;;;;2.22;1.00;;;19.20;85.50;;;;;;5090823;28;20208;-57
2021/05/26 12:19:28;;;;;;;3.40;1.20;;;19.50;85.30;;;;;;5090549;28;20525;-59
2021/05/26 12:22:10;;;;;;;1.10;0.80;;;19.70;84.30;;;;;;5090784;28;20228;-58
2021/05/26 12:24:55;;;;;;;1.13;1.02;;;19.80;83.70;;;;;;5094586;28;20667;-58
2021/05/26 12:27:41;;;;;;;1.70;0.90;;;20.00;82.30;;;;;;5094665;28;20215;-58
2021/05/26 12:30:21;;;;;;;2.22;0.70;;;20.10;81.50;;;;;;5094504;28;20208;-58
2021/05/26 12:32:48;;;;;;;2.83;0.95;;;20.20;80.50;;;;;;5095043;28;20232;-57
2021/05/26 12:35:18;;;;;;;3.67;0.95;;;20.30;80.10;;;;;;5094745;28;20200;-57
2021/05/26 12:37:46;;;;;;;2.50;0.80;;;20.70;79.90;;;;;;5094661;28;20212;-58
2021/05/26 12:40:30;;;;;;;5.28;0.93;;;21.00;78.40;;;;;;5094840;28;20208;-60
2021/05/26 12:42:58;;;;;;;4.00;0.73;;;21.10;77.60;;;;;;5094684;28;20239;-65
2021/05/26 12:45:26;;;;;;;1.50;0.90;;;21.30;77.20;;;;;;5094484;28;20205;-63
2021/05/26 12:47:54;;;;;;;1.00;0.68;;;21.60;75.90;;;;;;5092110;28;20204;-61
2021/05/26 12:50:24;;;;;;;2.10;1.00;;;21.80;75.40;;;;;;5094787;28;20237;-61
2021/05/26 12:52:52;;;;;;;1.65;0.75;;;22.00;74.80;;;;;;5094930;28;20227;-61
2021/05/26 12:55:19;;;;;;;2.88;1.15;;;22.00;74.60;;;;;;5093898;28;20600;-60
2021/05/26 12:57:46;;;;;;;7.05;1.15;;;22.20;73.60;;;;;;5094017;28;20215;-61